Latest Coastal Weather Observations for Onslow Airport

IDW60701

Issued at 4:12 am WST Friday 19 December 2014 (issued every 10 minutes, with the page automatically refreshed every 10 minutes)

About coastal observations | Map of coastal stations | Coastal observations for WA | Marine services | Other Formats
Station Details ID: 005017 Name: ONSLOW AIRPORT Lat: -21.67 Lon: 115.11 Height: 10.5 m
Data from the previous 72 hours. | See also: Recent months at Onslow Airport
Date/Time
WST
Temp

°C
Wind Pressure Rain
since 9am
mm
Weather Cloud Vis
km
Sea
Height
m
Swell
Dir
 
Speed
knots
Gust
knots
hPa Trend Height
m
Period
s
Dir
19/04:00am 23.3 W 7 9 1008.2 - 0.0 - - - - - - -
19/03:30am 23.3 W 7 9 1008.1 - 0.0 - - - - - - -
19/03:00am 23.5 W 6 7 1008.2 - 0.0 - - - - - - -
19/02:30am 23.9 WSW 7 8 1008.3 - 0.0 - - - - - - -
19/02:00am 24.1 W 6 7 1008.2 - 0.0 - - - - - - -
19/01:30am 25.0 WSW 7 10 1008.2 - 0.0 - - - - - - -
19/01:00am 25.4 SW 9 11 1008.3 - 0.0 - - - - - - -
19/12:30am 25.8 SW 10 12 1008.2 - 0.0 - - - - - - -
19/12:00am 26.1 SW 11 13 1008.5 - 0.0 - - - - - - -
 
Date/Time
WST
Temp

°C
Wind Pressure Rain
since 9am
mm
Weather Cloud Vis
km
Sea
Height
m
Swell
Dir
 
Speed
knots
Gust
knots
hPa Trend Height
m
Period
s
Dir
18/11:30pm 26.2 SW 9 11 1008.5 - 0.0 - - - - - - -
18/11:00pm 26.9 SW 12 15 1008.4 - 0.0 - - - - - - -
18/10:30pm 27.4 SW 11 15 1008.0 - 0.0 - - - - - - -
18/10:00pm 27.6 WSW 9 12 1007.9 - 0.0 - - - - - - -
18/09:30pm 26.9 W 10 12 1007.8 - 0.0 - - - - - - -
18/09:00pm 27.1 W 11 15 1007.6 - 0.0 - - - - - - -
18/08:30pm 26.9 W 12 15 1007.5 - 0.0 - - - - - - -
18/08:00pm 27.2 W 13 17 1007.4 - 0.0 - - - - - - -
18/07:30pm 27.4 W 13 16 1007.1 - 0.0 - - - - - - -
18/07:00pm 27.5 W 15 19 1006.8 - 0.0 - - - - - - -
18/06:30pm 28.0 W 16 21 1006.4 - 0.0 - - - - - - -
18/06:00pm 28.6 W 18 24 1006.0 - 0.0 - - - - - - -
18/05:30pm 28.8 W 19 24 1005.8 - 0.0 - - - - - - -
18/05:00pm 29.7 WNW 17 22 1005.8 - 0.0 - - - - - - -
18/04:30pm 30.0 WNW 18 24 1005.5 - 0.0 - - - - - - -
18/04:00pm 30.7 WNW 20 25 1005.5 - 0.0 - - - - - - -
18/03:30pm 31.5 WNW 20 24 1005.8 - 0.0 - - - - - - -
18/03:00pm 31.9 W 18 23 1006.1 - 0.0 - - - - - - -
18/02:30pm 31.5 WNW 19 23 1006.3 - 0.0 - - - - - - -
18/02:00pm 31.9 WNW 19 23 1006.4 - 0.0 - - - - - - -
18/01:30pm 32.0 WNW 19 24 1006.5 - 0.0 - - - - - - -
18/01:00pm 31.2 WNW 20 24 1006.7 - 0.0 - - - - - - -
18/12:30pm 31.8 WNW 19 22 1006.9 - 0.0 - - - - - - -
18/12:00pm 32.5 WNW 17 19 1007.1 - 0.0 - - - - - - -
18/11:30am 32.5 WNW 15 18 1007.3 - 0.0 - - - - - - -
18/11:00am 32.7 WNW 14 17 1007.5 - 0.0 - - - - - - -
18/10:30am 32.7 W 10 16 1007.8 - 0.0 - - - - - - -
18/10:00am 34.2 SSW 9 16 1007.9 - 0.0 - - - - - - -
18/09:30am 32.4 SSW 9 12 1008.0 - 0.0 - - - - - - -
18/09:00am 31.2 SW 11 14 1008.1 - 0.0 - - - - - - -
18/08:30am 29.3 SSW 11 14 1008.2 - 0.0 - - - - - - -
18/08:00am 27.6 SW 13 15 1008.2 - 0.0 - - - - - - -
18/07:30am 26.8 SSW 13 16 1008.0 - 0.0 - - - - - - -
18/07:00am 25.1 SW 13 16 1007.6 - 0.0 - - - - - - -
18/06:30am 23.9 SW 12 16 1007.6 - 0.0 - - - - - - -
18/06:00am 23.4 SW 9 12 1007.2 - 0.0 - - - - - - -
18/05:30am 23.4 SW 8 11 1006.9 - 0.0 - - - - - - -
18/05:00am 23.7 SW 9 12 1006.6 - 0.0 - - - - - - -
18/04:30am 24.0 SW 9 11 1006.5 - 0.0 - - - - - - -
18/04:00am 24.5 SW 9 11 1006.5 - 0.0 - - - - - - -
18/03:30am 24.6 SW 10 13 1006.2 - 0.0 - - - - - - -
18/03:00am 24.9 SW 10 13 1006.1 - 0.0 - - - - - - -
18/02:30am 25.0 SW 11 14 1006.0 - 0.0 - - - - - - -
18/02:00am 25.3 SW 13 16 1005.9 - 0.0 - - - - - - -
18/01:30am 25.4 SW 12 15 1006.0 - 0.0 - - - - - - -
18/01:00am 25.7 SW 12 15 1006.2 - 0.0 - - - - - - -
18/12:30am 25.8 SW 11 14 1006.2 - 0.0 - - - - - - -
18/12:00am 26.1 SW 12 16 1006.4 - 0.0 - - - - - - -
 
Date/Time
WST
Temp

°C
Wind Pressure Rain
since 9am
mm
Weather Cloud Vis
km
Sea
Height
m
Swell
Dir
 
Speed
knots
Gust
knots
hPa Trend Height
m
Period
s
Dir
17/11:30pm 26.5 WSW 12 15 1006.4 - 0.0 - - - - - - -
17/11:00pm 27.0 SW 14 18 1006.2 - 0.0 - - - - - - -
17/10:30pm 27.5 SW 14 19 1006.2 - 0.0 - - - - - - -
17/10:00pm 27.8 WSW 12 17 1006.4 - 0.0 - - - - - - -
17/09:30pm 28.2 WSW 15 20 1006.1 - 0.0 - - - - - - -
17/09:00pm 28.6 WSW 14 20 1005.8 - 0.0 - - - - - - -
17/08:30pm 29.4 WSW 15 20 1005.5 - 0.0 - - - - - - -
17/08:00pm 30.5 WSW 15 19 1005.1 - 0.0 - - - - - - -
17/07:30pm 31.4 WSW 15 21 1004.6 - 0.0 - - - - - - -
17/07:00pm 31.7 W 13 18 1004.3 - 0.0 - - - - - - -
17/06:30pm 29.8 W 16 20 1004.0 - 0.0 - - - - - - -
17/06:00pm 31.1 W 16 20 1003.7 - 0.0 - - - - - - -
17/05:30pm 31.1 W 17 21 1003.6 - 0.0 - - - - - - -
17/05:00pm 31.2 W 19 25 1003.4 - 0.0 - - - - - - -
17/04:30pm 31.2 WNW 19 24 1003.2 - 0.0 - - - - - - -
17/04:00pm 32.2 W 20 25 1003.2 - 0.0 - - - - - - -
17/03:30pm 33.3 W 18 23 1003.3 - 0.0 - - - - - - -
17/03:00pm 32.5 W 20 25 1003.6 - 0.0 - - - - - - -
17/02:30pm 32.1 WNW 20 26 1004.0 - 0.0 - - - - - - -
17/02:00pm 32.5 W 22 28 1004.2 - 0.0 - - - - - - -
17/01:30pm 31.9 W 21 25 1004.5 - 0.0 - - - - - - -
17/01:00pm 32.1 WNW 19 23 1004.8 - 0.0 - - - - - - -
17/12:30pm 32.1 WNW 18 22 1004.9 - 0.0 - - - - - - -
17/12:00pm 33.2 WNW 16 19 1005.2 - 0.0 - - - - - - -
17/11:30am 34.0 W 12 16 1005.6 - 0.0 - - - - - - -
17/11:00am 35.5 SW 10 14 1006.0 - 0.0 - - - - - - -
17/10:30am 33.7 SW 11 16 1006.3 - 0.0 - - - - - - -
17/10:00am 33.2 SW 11 16 1006.5 - 0.0 - - - - - - -
17/09:30am 31.2 SW 12 15 1006.6 - 0.0 - - - - - - -
17/09:00am 29.7 SW 13 16 1006.7 - 0.0 - - - - - - -
17/08:30am 28.8 SW 14 17 1006.8 - 0.0 - - - - - - -
17/08:00am 27.5 SW 15 19 1006.9 - 0.0 - - - - - - -
17/07:30am 26.2 SW 15 19 1006.8 - 0.0 - - - - - - -
17/07:00am 24.9 SW 13 17 1006.8 - 0.0 - - - - - - -
17/06:30am 23.6 WSW 11 14 1006.6 - 0.0 - - - - - - -
17/06:00am 22.5 WSW 9 11 1006.3 - 0.0 - - - - - - -
17/05:30am 21.8 WSW 9 10 1005.9 - 0.0 - - - - - - -
17/05:00am 21.9 WSW 8 10 1005.7 - 0.0 - - - - - - -
17/04:30am 22.3 WSW 8 10 1005.5 - 0.0 - - - - - - -
17/04:00am 23.0 WSW 8 11 1005.4 - 0.0 - - - - - - -
17/03:30am 23.3 WSW 8 10 1005.3 - 0.0 - - - - - - -
17/03:00am 23.2 WSW 8 10 1005.3 - 0.0 - - - - - - -
17/02:30am 23.1 WSW 8 10 1005.3 - 0.0 - - - - - - -
17/02:00am 23.3 W 7 9 1005.5 - 0.0 - - - - - - -
17/01:30am 23.6 WSW 8 9 1005.7 - 0.0 - - - - - - -
17/01:00am 23.6 W 8 9 1005.9 - 0.0 - - - - - - -
17/12:30am 24.3 WSW 8 10 1006.2 - 0.0 - - - - - - -
17/12:00am 24.7 WSW 10 13 1006.5 - 0.0 - - - - - - -
 
Date/Time
WST
Temp

°C
Wind Pressure Rain
since 9am
mm
Weather Cloud Vis
km
Sea
Height
m
Swell
Dir
 
Speed
knots
Gust
knots
hPa Trend Height
m
Period
s
Dir
16/11:30pm 24.9 WSW 10 11 1006.6 - 0.0 - - - - - - -
16/11:00pm 25.6 WSW 13 18 1006.6 - 0.0 - - - - - - -
16/10:30pm 26.1 WSW 12 16 1006.7 - 0.0 - - - - - - -
16/10:00pm 26.3 WSW 13 17 1006.7 - 0.0 - - - - - - -
16/09:30pm 26.2 W 12 16 1006.4 - 0.0 - - - - - - -
16/09:00pm 26.3 W 12 16 1006.2 - 0.0 - - - - - - -
16/08:30pm 26.3 W 14 17 1006.0 - 0.0 - - - - - - -
16/08:00pm 26.2 W 16 21 1005.8 - 0.0 - - - - - - -
16/07:30pm 26.3 W 17 21 1005.3 - 0.0 - - - - - - -
16/07:00pm 26.5 W 16 22 1005.1 - 0.0 - - - - - - -
16/06:30pm 27.0 W 19 25 1005.0 - 0.0 - - - - - - -
16/06:00pm 27.8 WNW 18 24 1005.0 - 0.0 - - - - - - -
16/05:30pm 27.6 WNW 19 23 1004.8 - 0.0 - - - - - - -
16/05:00pm 28.1 WNW 19 23 1004.6 - 0.0 - - - - - - -
16/04:30pm 28.3 WNW 20 24 1004.7 - 0.0 - - - - - - -
16/04:00pm 28.8 WNW 19 23 1004.8 - 0.0 - - - - - - -
16/03:30pm 28.9 WNW 18 22 1004.9 - 0.0 - - - - - - -
16/03:00pm 29.5 WNW 20 23 1005.3 - 0.0 - - - - - - -
16/02:30pm 30.0 WNW 18 21 1005.4 - 0.0 - - - - - - -
16/02:00pm 30.4 WNW 19 21 1005.6 - 0.0 - - - - - - -
16/01:30pm 30.7 WNW 18 22 1005.8 - 0.0 - - - - - - -
16/01:00pm 30.6 WNW 19 22 1006.0 - 0.0 - - - - - - -
16/12:30pm 30.0 WNW 18 21 1006.3 - 0.0 - - - - - - -
16/12:00pm 29.3 WNW 18 22 1006.5 - 0.0 - - - - - - -
16/11:30am 29.6 WNW 17 21 1006.8 - 0.0 - - - - - - -
16/11:00am 29.6 WNW 16 20 1007.1 - 0.0 - - - - - - -
16/10:30am 29.5 WNW 15 18 1007.3 - 0.0 - - - - - - -
16/10:00am 30.4 WNW 12 15 1007.6 - 0.0 - - - - - - -
16/09:30am 30.6 WSW 6 10 1007.8 - 0.0 - - - - - - -
16/09:00am 29.2 SW 7 11 1007.7 - 0.0 - - - - - - -
16/08:30am 27.6 SW 7 10 1008.0 - 0.0 - - - - - - -
16/08:00am 26.6 SW 8 10 1008.0 - 0.0 - - - - - - -
16/07:30am 25.0 SW 9 13 1007.8 - 0.0 - - - - - - -
16/07:00am 24.2 SW 12 16 1007.6 - 0.0 - - - - - - -
16/06:30am 23.2 SW 11 13 1007.2 - 0.0 - - - - - - -
16/06:00am 22.5 SW 8 11 1006.7 - 0.0 - - - - - - -
16/05:30am 22.3 SW 10 12 1006.2 - 0.0 - - - - - - -
16/05:00am 22.5 SW 9 13 1005.8 - 0.0 - - - - - - -
16/04:30am 22.7 SW 10 13 1005.7 - 0.0 - - - - - - -

Other Formats:

Comma delimited format used in spreadsheet applications
http://www.bom.gov.au/fwo/IDW60701/IDW60701.95305.axf

JavaScript Object Notation format (JSON) in row-major order
http://www.bom.gov.au/fwo/IDW60701/IDW60701.95305.json